Time;durP1;ratioP1;P1;durP2;ratioP2;P2;SDS_P1;SDS_P2;PMS_P1;PMS_P2;Temp;Humidity;BMP_temperature;BMP_pressure;BME280_temperature;BME280_humidity;BME280_pressure;Samples;Min_cycle;Max_cycle;Signal;HPM_P1;HPM_P2
2022/01/10 00:00:21;;;;;;;;;47.00;39.00;;;;;8.50;68.30;100614.59;4977647;28;45443;-68
2022/01/10 00:02:50;;;;;;;;;53.50;43.00;;;;;8.45;67.97;100612.34;4974878;28;46807;-68
2022/01/10 00:05:16;;;;;;;;;50.25;41.00;;;;;8.44;68.22;100621.28;4997377;28;45351;-68
2022/01/10 00:07:42;;;;;;;;;48.75;40.50;;;;;8.30;68.23;100596.91;4997140;28;45354;-69
2022/01/10 00:10:09;;;;;;;;;52.25;43.25;;;;;8.46;68.27;100627.28;4979581;28;45381;-69
2022/01/10 00:12:34;;;;;;;;;50.75;42.25;;;;;8.42;68.66;100622.38;4983246;28;45719;-68
2022/01/10 00:15:03;;;;;;;;;53.75;44.50;;;;;8.41;68.63;100625.97;4959700;28;46448;-67
2022/01/10 00:17:29;;;;;;;;;53.25;43.00;;;;;8.38;68.26;100632.38;4977736;28;45386;-67
2022/01/10 00:19:54;;;;;;;;;51.00;42.75;;;;;8.32;68.90;100616.16;4977898;28;45323;-69
2022/01/10 00:22:22;;;;;;;;;52.25;42.75;;;;;8.45;68.60;100638.00;4988092;28;46063;-68
2022/01/10 00:24:47;;;;;;;;;51.25;42.25;;;;;8.45;68.21;100648.59;4997394;28;45421;-68
2022/01/10 00:27:12;;;;;;;;;54.25;46.25;;;;;8.45;68.54;100649.44;4995635;28;45377;-68
2022/01/10 00:29:38;;;;;;;;;45.00;38.25;;;;;8.38;68.62;100650.94;4996970;28;45883;-68
2022/01/10 00:32:03;;;;;;;;;57.00;45.00;;;;;8.39;68.66;100649.94;4970056;28;45949;-67
2022/01/10 00:34:29;;;;;;;;;51.00;41.50;;;;;8.43;68.80;100663.81;4977040;28;45274;-67
2022/01/10 00:36:54;;;;;;;;;49.75;42.50;;;;;8.35;68.45;100653.00;4959719;28;45438;-69
2022/01/10 00:39:20;;;;;;;;;80.00;68.50;;;;;8.48;68.66;100669.53;4977387;28;45958;-66
2022/01/10 00:41:46;;;;;;;;;72.50;54.75;;;;;8.30;68.81;100639.28;4959369;28;47429;-68
2022/01/10 00:44:12;;;;;;;;;56.25;46.00;;;;;8.46;68.52;100660.88;4976958;28;45303;-67
2022/01/10 00:46:38;;;;;;;;;51.00;41.00;;;;;8.58;68.32;100680.16;4977142;28;45272;-68
2022/01/10 00:49:04;;;;;;;;;50.00;41.50;;;;;8.59;67.95;100681.84;4976966;28;45336;-69
2022/01/10 00:51:30;;;;;;;;;48.75;41.00;;;;;8.57;68.48;100687.28;4980549;28;45349;-68
2022/01/10 00:53:55;;;;;;;;;46.50;40.00;;;;;8.48;68.61;100675.66;4996541;28;45479;-68
2022/01/10 00:56:21;;;;;;;;;54.00;43.25;;;;;8.43;68.27;100667.28;4996672;28;45432;-67
2022/01/10 00:58:47;;;;;;;;;53.75;43.00;;;;;8.41;68.82;100660.41;4999028;28;45456;-68
2022/01/10 01:01:14;;;;;;;;;49.00;42.00;;;;;8.50;68.33;100670.25;4997100;28;45587;-69
2022/01/10 01:03:40;;;;;;;;;53.75;44.00;;;;;8.54;68.27;100679.59;4960081;28;45286;-67
2022/01/10 01:06:05;;;;;;;;;50.75;39.25;;;;;8.43;68.49;100662.00;4975323;28;45358;-67
2022/01/10 01:08:33;;;;;;;;;52.25;42.75;;;;;8.41;68.63;100657.75;4959314;28;45232;-66
2022/01/10 01:24:02;;;;;;;;;51.33;39.33;;;;;8.68;68.17;100720.81;4960232;28;45432;-67
2022/01/10 01:26:29;;;;;;;;;42.50;35.50;;;;;8.60;68.28;100708.19;4960487;28;45250;-68
2022/01/10 01:28:55;;;;;;;;;44.00;39.25;;;;;8.65;68.46;100718.44;4959136;28;45526;-69
2022/01/10 01:31:20;;;;;;;;;44.25;38.00;;;;;8.65;68.32;100724.56;4962053;28;45501;-67
2022/01/10 01:33:46;;;;;;;;;45.00;38.50;;;;;8.71;68.14;100734.63;4981686;28;45727;-68
2022/01/10 01:36:11;;;;;;;;;46.50;38.50;;;;;8.63;67.81;100717.72;4999635;28;45397;-67
2022/01/10 01:38:39;;;;;;;;;52.50;43.75;;;;;8.79;68.33;100748.06;4999677;28;45413;-68
2022/01/10 01:43:47;;;;;;;;;50.50;41.00;;;;;8.84;67.51;100764.44;4959955;28;45259;-69
2022/01/10 01:46:13;;;;;;;;;48.25;38.50;;;;;8.38;67.75;100695.97;4958938;28;45522;-68
2022/01/10 01:48:39;;;;;;;;;40.50;36.25;;;;;8.76;67.92;100758.94;4942729;28;45449;-67
2022/01/10 01:51:04;;;;;;;;;44.75;38.00;;;;;8.72;68.00;100759.31;4959893;28;46375;-67
2022/01/10 01:53:33;;;;;;;;;46.75;38.25;;;;;8.73;68.21;100764.50;4978599;28;45339;-67
2022/01/10 01:55:59;;;;;;;;;43.00;37.50;;;;;8.63;68.28;100768.91;4979586;28;45433;-69
2022/01/10 01:58:26;;;;;;;;;42.25;37.00;;;;;8.61;68.30;100778.81;4979318;28;45325;-67
2022/01/10 02:00:52;;;;;;;;;47.00;37.00;;;;;8.44;68.52;100759.03;4979034;28;45775;-67
2022/01/10 02:03:17;;;;;;;;;46.00;38.00;;;;;8.47;68.91;100785.28;4995083;28;45392;-68
2022/01/10 02:05:42;;;;;;;;;40.67;36.00;;;;;8.37;69.34;100780.88;4999013;28;45476;-68
2022/01/10 02:08:10;;;;;;;;;43.00;35.25;;;;;8.42;69.57;100794.59;4999263;28;45316;-67
2022/01/10 02:10:36;;;;;;;;;40.25;36.25;;;;;7.80;69.62;100700.81;4998966;28;46622;-67
2022/01/10 02:13:02;;;;;;;;;45.67;38.00;;;;;8.21;70.12;100787.44;4985120;28;45228;-66
2022/01/10 02:15:34;;;;;;;;;40.50;35.25;;;;;8.21;70.14;100800.69;4979001;28;45352;-67
2022/01/10 02:18:00;;;;;;;;;45.50;38.75;;;;;8.18;70.09;100803.56;4979574;28;45283;-67
2022/01/10 02:20:33;;;;;;;;;39.33;35.67;;;;;8.18;70.45;100800.91;4977953;28;45457;-67
2022/01/10 02:22:59;;;;;;;;;43.33;38.33;;;;;8.19;70.37;100809.69;4992053;28;46267;-67
2022/01/10 02:25:24;;;;;;;;;38.33;35.00;;;;;7.70;70.08;100730.84;4998771;28;45333;-67
2022/01/10 02:27:50;;;;;;;;;47.50;39.75;;;;;8.01;70.30;100790.03;4998829;28;45220;-68
2022/01/10 02:30:16;;;;;;;;;44.75;34.75;;;;;8.07;70.39;100798.31;4998503;28;46940;-67
2022/01/10 02:32:41;;;;;;;;;39.75;35.00;;;;;8.11;70.43;100794.44;4987945;28;45214;-68
2022/01/10 02:35:21;;;;;;;;;42.75;36.75;;;;;7.99;70.79;100778.72;4979046;28;45439;-67
2022/01/10 02:37:48;;;;;;;;;40.75;36.00;;;;;8.10;70.20;100811.31;4961481;28;45619;-68
2022/01/10 02:40:14;;;;;;;;;43.50;35.75;;;;;8.02;70.28;100797.88;4964582;28;46841;-67
2022/01/10 02:42:40;;;;;;;;;39.50;35.00;;;;;7.39;71.10;100712.16;4998238;28;45328;-66
2022/01/10 02:45:07;;;;;;;;;41.75;35.75;;;;;7.99;70.99;100806.03;4998304;28;45476;-68
2022/01/10 02:47:32;;;;;;;;;47.75;37.50;;;;;7.92;70.63;100800.41;4998338;28;45299;-66
2022/01/10 02:49:58;;;;;;;;;41.25;37.50;;;;;7.83;71.11;100787.09;4997076;28;45744;-67
2022/01/10 02:52:24;;;;;;;;;38.00;35.50;;;;;7.94;70.97;100816.16;4980410;28;46270;-68
2022/01/10 02:54:49;;;;;;;;;40.00;35.50;;;;;7.86;70.76;100794.78;4996639;28;45467;-68
2022/01/10 02:57:15;;;;;;;;;38.50;35.75;;;;;8.03;70.55;100828.66;4998554;28;45429;-67
2022/01/10 02:59:41;;;;;;;;;35.67;32.33;;;;;7.91;70.64;100821.72;4998008;28;46056;-67
2022/01/10 03:02:08;;;;;;;;;41.50;36.00;;;;;7.96;70.64;100846.00;4961809;28;45584;-68
2022/01/10 03:04:34;;;;;;;;;44.00;35.00;;;;;7.99;70.59;100852.84;4978490;28;45588;-69
2022/01/10 03:07:00;;;;;;;;;41.25;36.00;;;;;7.99;70.81;100851.03;4977231;28;45571;-66
2022/01/10 03:09:25;;;;;;;;;41.75;36.50;;;;;7.82;70.66;100819.84;4976912;28;46247;-66
2022/01/10 03:11:50;;;;;;;;;46.00;37.50;;;;;7.99;70.62;100852.84;4994269;28;45299;-68
2022/01/10 03:14:16;;;;;;;;;46.00;38.50;;;;;7.88;70.58;100843.16;4980402;28;45334;-68
2022/01/10 03:16:41;;;;;;;;;42.50;38.50;;;;;8.02;70.58;100864.06;4997706;28;45550;-68
2022/01/10 03:19:07;;;;;;;;;36.50;35.00;;;;;7.93;70.25;100849.75;4979964;28;48517;-66
2022/01/10 03:21:35;;;;;;;;;40.75;36.75;;;;;8.01;70.62;100862.38;4983768;28;45450;-67
2022/01/10 03:24:01;;;;;;;;;44.75;37.50;;;;;8.01;70.42;100867.66;4960698;28;45466;-66
2022/01/10 03:26:27;;;;;;;;;41.00;35.00;;;;;8.00;70.76;100860.66;4978464;28;45240;-68
2022/01/10 03:28:53;;;;;;;;;47.00;40.25;;;;;7.93;70.79;100870.91;4976428;28;48180;-68
2022/01/10 03:31:19;;;;;;;;;50.00;36.25;;;;;7.91;71.26;100879.97;4988549;28;45251;-67
2022/01/10 03:33:44;;;;;;;;;44.50;39.00;;;;;7.50;70.92;100804.72;4979424;28;45167;-67
2022/01/10 03:36:10;;;;;;;;;42.75;36.25;;;;;7.86;71.33;100861.81;4997711;28;45460;-67
2022/01/10 03:38:35;;;;;;;;;39.00;35.00;;;;;7.85;70.68;100867.22;4997492;28;45342;-67
2022/01/10 03:41:01;;;;;;;;;49.75;38.00;;;;;7.72;71.54;100855.94;4971360;28;45445;-66
2022/01/10 03:43:26;;;;;;;;;44.25;39.00;;;;;7.83;71.26;100885.88;4978086;28;45271;-67
2022/01/10 03:45:52;;;;;;;;;45.00;36.00;;;;;7.84;71.10;100892.84;4960577;28;45328;-67
2022/01/10 03:48:18;;;;;;;;;37.50;34.75;;;;;7.83;71.18;100892.97;4977615;28;46344;-68
2022/01/10 03:50:43;;;;;;;;;41.75;37.00;;;;;7.78;71.28;100892.47;4965468;28;45599;-67
2022/01/10 03:53:09;;;;;;;;;41.00;35.33;;;;;7.71;71.73;100888.66;4997403;28;45287;-67
2022/01/10 03:55:34;;;;;;;;;42.00;36.50;;;;;7.76;71.07;100910.28;4997595;28;45463;-68
2022/01/10 03:57:59;;;;;;;;;39.25;35.75;;;;;7.68;71.57;100899.47;4997055;28;45699;-67
2022/01/10 04:00:25;;;;;;;;;41.67;35.33;;;;;7.29;71.76;100832.88;4994239;28;45536;-68
2022/01/10 04:02:59;;;;;;;;;39.25;33.00;;;;;7.63;71.50;100883.97;4960544;28;45449;-67
2022/01/10 04:05:24;;;;;;;;;48.00;38.00;;;;;7.33;71.12;100831.69;4977625;28;45572;-68
2022/01/10 04:07:50;;;;;;;;;46.75;39.00;;;;;7.84;71.15;100916.69;4959554;28;48789;-67
2022/01/10 04:10:15;;;;;;;;;49.00;40.00;;;;;7.77;70.86;100912.81;4978690;28;45303;-67
2022/01/10 04:12:41;;;;;;;;;54.00;41.75;;;;;7.86;71.20;100920.03;4995818;28;45697;-67
2022/01/10 04:15:08;;;;;;;;;49.00;40.50;;;;;7.67;70.63;100897.81;4997289;28;45580;-68
2022/01/10 04:17:34;;;;;;;;;45.25;38.00;;;;;7.70;70.93;100910.78;4979208;28;47034;-67
2022/01/10 04:19:59;;;;;;;;;48.75;40.00;;;;;7.70;71.35;100929.31;4996637;28;45272;-67
2022/01/10 04:22:25;;;;;;;;;53.50;42.00;;;;;7.11;71.41;100837.81;4959946;28;45551;-68
2022/01/10 04:24:50;;;;;;;;;46.75;39.50;;;;;7.72;71.44;100930.88;4960192;28;45540;-67
2022/01/10 04:27:16;;;;;;;;;49.25;39.50;;;;;7.79;71.38;100941.81;4977186;28;46124;-67
2022/01/10 04:29:41;;;;;;;;;46.25;40.25;;;;;7.60;71.57;100926.53;4977165;28;45536;-68
2022/01/10 04:32:08;;;;;;;;;48.25;40.00;;;;;7.63;71.46;100948.31;4993428;28;45301;-67
2022/01/10 04:34:34;;;;;;;;;46.25;39.25;;;;;7.69;71.17;100946.16;4979479;28;45207;-68
2022/01/10 04:36:59;;;;;;;;;41.75;37.00;;;;;7.57;71.47;100938.19;4996580;28;46884;-68
2022/01/10 04:39:24;;;;;;;;;47.00;38.75;;;;;7.65;71.20;100952.66;4996615;28;45365;-68
2022/01/10 04:41:50;;;;;;;;;44.75;37.75;;;;;7.63;71.61;100947.47;4982990;28;45353;-67
2022/01/10 04:44:15;;;;;;;;;47.25;40.00;;;;;7.67;71.68;100964.78;4978204;28;45497;-67
2022/01/10 04:46:41;;;;;;;;;45.50;38.50;;;;;7.59;71.43;100961.88;4980261;28;45461;-66
2022/01/10 04:49:17;;;;;;;;;46.75;39.25;;;;;7.53;71.87;100978.25;4980352;28;45469;-66
2022/01/10 04:51:43;;;;;;;;;43.75;38.25;;;;;7.38;72.67;100980.25;4993005;28;45432;-67
2022/01/10 04:54:08;;;;;;;;;43.00;37.50;;;;;7.38;72.40;100971.47;5000170;28;45250;-67
2022/01/10 04:56:34;;;;;;;;;45.25;36.25;;;;;7.45;72.38;100992.06;4999898;28;46288;-67
2022/01/10 04:59:00;;;;;;;;;54.00;43.75;;;;;7.38;72.52;100990.84;4982293;28;46500;-67
2022/01/10 05:01:26;;;;;;;;;56.50;46.25;;;;;7.40;72.11;101010.09;4990097;28;45504;-67
2022/01/10 05:03:51;;;;;;;;;53.50;44.50;;;;;7.37;72.93;101020.91;4981525;28;45462;-67
2022/01/10 05:06:17;;;;;;;;;52.50;44.00;;;;;7.26;72.74;100994.44;4962412;28;46455;-68
2022/01/10 05:08:42;;;;;;;;;53.25;42.00;;;;;7.36;72.50;101007.78;4980325;28;45332;-67
2022/01/10 05:11:08;;;;;;;;;15.75;8.50;;;;;7.17;72.63;100990.66;4969567;28;45616;-68
2022/01/10 05:13:34;;;;;;;;;52.25;43.75;;;;;7.04;73.14;100976.72;5000032;28;45330;-67
2022/01/10 05:15:59;;;;;;;;;55.25;43.75;;;;;7.30;72.78;101027.63;4981426;28;47325;-67
2022/01/10 05:18:25;;;;;;;;;50.25;43.25;;;;;7.04;73.01;100981.16;4999221;28;45329;-66
2022/01/10 05:20:51;;;;;;;;;50.25;40.25;;;;;7.17;72.63;101008.34;4994767;28;45410;-67
2022/01/10 05:23:17;;;;;;;;;53.00;43.25;;;;;7.26;72.69;101034.09;4980088;28;45334;-68
2022/01/10 05:25:42;;;;;;;;;52.50;43.00;;;;;7.21;72.44;101045.03;4979746;28;45507;-69
2022/01/10 05:28:11;;;;;;;;;53.00;43.00;;;;;6.67;73.02;100957.47;4979744;28;45403;-69
2022/01/10 05:30:38;;;;;;;;;50.00;42.25;;;;;7.04;73.40;101023.47;4981433;28;45234;-68
2022/01/10 05:33:04;;;;;;;;;48.75;41.50;;;;;7.11;72.65;101051.13;4999009;28;45526;-68
2022/01/10 05:35:30;;;;;;;;;45.50;39.00;;;;;7.11;72.57;101051.13;4999206;28;45539;-67
2022/01/10 05:37:55;;;;;;;;;52.75;44.00;;;;;7.09;73.24;101047.75;4999186;28;45491;-68
2022/01/10 05:40:21;;;;;;;;;52.50;42.50;;;;;7.16;73.06;101055.09;4997374;28;45321;-69
2022/01/10 05:42:47;;;;;;;;;49.75;41.75;;;;;7.18;72.93;101063.75;4979491;28;45330;-67
2022/01/10 05:45:12;;;;;;;;;47.75;40.75;;;;;7.14;72.52;101064.09;4977753;28;47817;-68
2022/01/10 05:47:43;;;;;;;;;52.00;43.25;;;;;6.95;72.69;101033.75;4979355;28;45540;-68
2022/01/10 05:50:11;;;;;;;;;50.25;42.00;;;;;7.18;72.22;101074.31;4978536;28;45375;-68
2022/01/10 05:52:37;;;;;;;;;51.25;41.50;;;;;7.18;72.65;101071.69;4994610;28;45406;-68
2022/01/10 05:55:03;;;;;;;;;50.50;42.75;;;;;6.94;72.52;101045.28;4979478;28;45555;-67
2022/01/10 05:57:29;;;;;;;;;50.50;39.00;;;;;6.89;72.62;101062.44;4961715;28;45322;-67
2022/01/10 05:59:54;;;;;;;;;52.75;43.50;;;;;6.95;73.07;101072.53;4979216;28;45191;-67
2022/01/10 06:02:21;;;;;;;;;52.75;43.50;;;;;6.83;73.11;101063.72;4980736;28;45493;-66
2022/01/10 06:04:46;;;;;;;;;52.50;43.00;;;;;7.00;72.81;101097.69;4998828;28;46495;-67
2022/01/10 06:07:13;;;;;;;;;53.50;45.50;;;;;7.09;72.62;101113.84;4998601;28;45242;-68
2022/01/10 06:09:38;;;;;;;;;54.25;44.75;;;;;7.06;73.15;101116.72;4999048;28;45440;-68
2022/01/10 06:12:04;;;;;;;;;54.75;45.00;;;;;6.91;73.25;101108.94;4982365;28;45350;-67
2022/01/10 06:14:29;;;;;;;;;53.00;44.25;;;;;6.88;72.76;101125.03;4998667;28;46424;-68
2022/01/10 06:16:55;;;;;;;;;52.25;44.00;;;;;6.17;72.63;101035.06;4985258;28;45374;-67
2022/01/10 06:19:20;;;;;;;;;58.50;47.75;;;;;6.51;73.22;101125.97;4979212;28;45306;-68
2022/01/10 06:21:46;;;;;;;;;56.25;47.25;;;;;6.57;73.06;101159.84;4979200;28;45560;-68
2022/01/10 06:24:11;;;;;;;;;57.25;47.75;;;;;6.56;73.06;101168.75;4978708;28;45666;-68
2022/01/10 06:26:37;;;;;;;;;52.00;44.00;;;;;6.50;73.42;101163.91;4990870;28;45572;-68
2022/01/10 06:29:02;;;;;;;;;48.75;40.25;;;;;5.59;73.43;101021.47;4980924;28;46023;-67
2022/01/10 06:31:28;;;;;;;;;55.00;44.00;;;;;6.60;73.20;101173.69;4998399;28;45460;-67
2022/01/10 06:33:54;;;;;;;;;56.25;47.00;;;;;6.49;72.58;101168.34;4998128;28;46740;-67
2022/01/10 06:36:19;;;;;;;;;56.00;43.75;;;;;6.52;72.87;101188.41;4987906;28;45420;-66
2022/01/10 06:38:44;;;;;;;;;48.75;40.75;;;;;6.40;72.30;101161.03;4978976;28;45445;-67
2022/01/10 06:41:10;;;;;;;;;57.50;47.00;;;;;6.44;72.61;101172.25;4977382;28;45505;-68
2022/01/10 06:43:37;;;;;;;;;53.50;44.00;;;;;6.36;72.47;101170.13;4978338;28;46636;-68
2022/01/10 06:46:03;;;;;;;;;55.75;46.50;;;;;5.88;71.56;101096.00;4986006;28;45350;-69
2022/01/10 06:48:28;;;;;;;;;52.00;44.00;;;;;6.49;72.35;101200.03;4998548;28;45342;-69
2022/01/10 06:50:55;;;;;;;;;53.50;43.00;;;;;6.61;72.57;101216.84;4998350;28;45494;-70
2022/01/10 06:53:21;;;;;;;;;57.25;43.50;;;;;6.43;72.41;101181.13;4980156;28;48120;-67
2022/01/10 06:55:47;;;;;;;;;54.00;44.00;;;;;6.34;73.47;101204.56;4986128;28;45597;-69
2022/01/10 06:58:13;;;;;;;;;58.25;47.25;;;;;6.32;73.29;101219.69;4979992;28;45297;-66
2022/01/10 07:00:39;;;;;;;;;54.50;43.75;;;;;6.41;73.65;101247.25;4998097;28;45582;-67
2022/01/10 07:03:05;;;;;;;;;59.50;44.75;;;;;6.05;73.81;101187.25;4979588;28;48282;-68
2022/01/10 07:05:30;;;;;;;;;43.75;38.00;;;;;6.30;74.04;101244.50;4968054;28;45814;-69
2022/01/10 07:07:56;;;;;;;;;48.25;40.00;;;;;6.37;73.72;101275.66;4978522;28;45429;-68
2022/01/10 07:10:21;;;;;;;;;47.25;36.50;;;;;6.42;73.93;101270.09;4960702;28;45552;-70
2022/01/10 07:12:47;;;;;;;;;48.75;40.25;;;;;6.28;74.24;101257.81;4978013;28;46467;-75
2022/01/10 07:15:14;;;;;;;;;44.00;37.00;;;;;5.98;74.06;101213.19;4960707;28;46071;-69
2022/01/10 07:17:39;;;;;;;;;50.25;42.25;;;;;5.66;73.79;101169.63;4959915;28;45317;-73
2022/01/10 07:20:05;;;;;;;;;49.50;41.00;;;;;6.44;73.74;101288.47;4988923;28;45517;-66
2022/01/10 07:22:31;;;;;;;;;46.50;38.00;;;;;6.53;72.99;101303.69;4977774;28;47245;-69
2022/01/10 07:24:57;;;;;;;;;47.00;37.75;;;;;6.48;73.46;101306.63;4984058;28;45439;-70
2022/01/10 07:27:22;;;;;;;;;47.00;40.50;;;;;6.41;73.63;101318.56;4978136;28;45451;-69
2022/01/10 07:29:50;;;;;;;;;47.67;36.67;;;;;5.72;73.68;101224.59;4975545;28;45624;-69
2022/01/10 07:32:15;;;;;;;;;38.67;34.67;;;;;6.36;73.89;101326.78;4977686;28;45471;-67
2022/01/10 07:34:41;;;;;;;;;41.33;38.00;;;;;6.17;73.60;101307.84;4959582;28;45323;-68
2022/01/10 07:37:06;;;;;;;;;52.00;38.33;;;;;6.18;73.00;101313.97;4977751;28;45271;-69
2022/01/10 07:39:32;;;;;;;;;36.67;32.67;;;;;6.24;74.17;101351.38;4979516;28;45527;-70
2022/01/10 07:41:57;;;;;;;;;40.00;33.67;;;;;6.28;73.84;101368.72;4994950;28;45452;-70
2022/01/10 07:44:23;;;;;;;;;48.33;37.00;;;;;6.19;73.57;101373.72;4985311;28;45567;-71
2022/01/10 07:46:48;;;;;;;;;43.33;36.67;;;;;5.96;74.25;101349.69;4985806;28;46030;-68
2022/01/10 07:49:13;;;;;;;;;42.00;37.00;;;;;5.97;74.45;101361.09;4987168;28;45508;-71
2022/01/10 07:51:39;;;;;;;;;35.00;30.00;;;;;5.73;73.72;101330.03;4994859;28;45948;-70
2022/01/10 07:54:04;;;;;;;;;43.00;36.25;;;;;6.04;73.92;101391.44;4975176;28;46382;-70
2022/01/10 07:56:30;;;;;;;;;46.75;40.00;;;;;6.09;74.13;101403.38;4977231;28;45302;-70
2022/01/10 07:58:56;;;;;;;;;44.25;39.25;;;;;5.83;73.07;101387.50;4985194;28;45469;-68
2022/01/10 08:01:22;;;;;;;;;46.00;37.25;;;;;5.85;74.04;101412.84;4976050;28;47185;-69
2022/01/10 08:03:52;;;;;;;;;42.50;34.75;;;;;5.85;74.00;101425.19;4996912;28;45333;-67
2022/01/10 08:06:19;;;;;;;;;41.00;34.33;;;;;5.77;73.64;101409.81;4978599;28;45189;-68
2022/01/10 08:08:45;;;;;;;;;44.67;34.00;;;;;5.88;73.19;101438.19;4984012;28;45538;-71
2022/01/10 08:11:11;;;;;;;;;41.00;31.67;;;;;5.76;72.82;101419.53;4966065;28;47456;-68
2022/01/10 08:13:36;;;;;;;;;33.33;31.00;;;;;5.85;72.80;101441.03;4987772;28;45441;-68
2022/01/10 08:16:02;;;;;;;;;34.67;31.00;;;;;5.74;72.46;101437.25;4996648;28;45643;-68
2022/01/10 08:18:30;;;;;;;;;31.33;28.00;;;;;5.68;72.99;101436.81;4998041;28;45175;-70
2022/01/10 08:20:56;;;;;;;;;31.33;25.33;;;;;5.67;73.25;101430.69;4982121;28;47886;-71
2022/01/10 08:23:22;;;;;;;;;30.00;26.33;;;;;5.68;72.20;101432.38;5000027;28;45204;-66
2022/01/10 08:25:47;;;;;;;;;31.00;27.33;;;;;5.62;72.72;101435.41;4998499;28;45357;-68
2022/01/10 08:28:12;;;;;;;;;32.00;22.00;;;;;5.67;72.56;101457.06;4998852;28;45222;-69
2022/01/10 08:30:38;;;;;;;;;33.33;28.67;;;;;5.64;72.92;101457.25;5000127;28;45584;-66
2022/01/10 08:33:03;;;;;;;;;37.00;35.00;;;;;5.69;72.44;101470.16;5000255;28;45496;-69
2022/01/10 08:35:29;;;;;;;;;29.33;27.33;;;;;5.56;72.74;101456.84;4982393;28;45220;-69
2022/01/10 08:37:55;;;;;;;;;31.67;27.67;;;;;5.60;73.51;101466.28;4982634;28;45352;-68
2022/01/10 08:40:20;;;;;;;;;37.00;31.33;;;;;5.52;73.17;101476.47;4982314;28;46667;-69
2022/01/10 08:42:46;;;;;;;;;31.67;25.00;;;;;5.55;73.59;101478.91;4982556;28;45485;-67
2022/01/10 08:45:12;;;;;;;;;38.00;30.33;;;;;5.46;73.61;101482.13;5000400;28;45347;-70
2022/01/10 08:47:38;;;;;;;;;30.33;22.33;;;;;5.47;73.74;101487.28;4982888;28;45424;-67
2022/01/10 08:50:07;;;;;;;;;39.67;30.67;;;;;5.41;73.76;101463.94;5000193;28;46211;-69
2022/01/10 08:52:32;;;;;;;;;40.67;34.33;;;;;5.59;74.07;101490.97;4981913;28;45705;-67
2022/01/10 08:54:57;;;;;;;;;29.67;26.00;;;;;5.67;73.84;101483.44;4999009;28;45217;-68
2022/01/10 08:57:24;;;;;;;;;44.33;35.00;;;;;5.75;73.45;101497.00;4982828;28;45563;-71
2022/01/10 08:59:50;;;;;;;;;36.67;33.00;;;;;5.51;73.55;101490.59;5000750;28;45804;-68
2022/01/10 09:02:15;;;;;;;;;44.67;36.33;;;;;5.66;73.92;101510.75;5000130;28;45487;-67
2022/01/10 09:04:41;;;;;;;;;33.33;32.33;;;;;5.69;73.93;101522.91;5000146;28;45316;-67
2022/01/10 09:07:08;;;;;;;;;46.33;38.67;;;;;5.59;73.52;101527.88;4982100;28;45329;-69
2022/01/10 09:09:34;;;;;;;;;45.33;35.67;;;;;5.68;73.93;101527.34;4981888;28;48841;-70
2022/01/10 09:11:59;;;;;;;;;41.75;35.25;;;;;5.55;74.10;101504.44;4999392;28;45397;-68
2022/01/10 09:14:25;;;;;;;;;42.33;36.33;;;;;5.70;74.16;101538.66;4981801;28;45651;-70
2022/01/10 09:16:51;;;;;;;;;37.33;33.67;;;;;5.76;73.91;101550.59;4982080;28;45521;-69
2022/01/10 09:19:16;;;;;;;;;43.67;34.33;;;;;5.66;74.12;101528.38;5000069;28;45775;-68
2022/01/10 09:21:42;;;;;;;;;44.67;36.33;;;;;5.75;73.53;101527.81;4999389;28;45527;-70
2022/01/10 09:24:08;;;;;;;;;43.75;38.75;;;;;5.85;73.16;101549.22;4999697;28;45516;-69
2022/01/10 09:26:33;;;;;;;;;54.25;42.25;;;;;5.86;73.58;101546.47;4981636;28;45528;-69
2022/01/10 09:28:59;;;;;;;;;47.33;37.00;;;;;5.98;72.84;101556.28;4981726;28;47416;-69
2022/01/10 09:31:25;;;;;;;;;42.67;37.33;;;;;6.01;72.95;101548.22;4981006;28;45902;-70
2022/01/10 09:33:54;;;;;;;;;42.00;35.33;;;;;6.19;72.85;101569.09;4999260;28;45323;-69
2022/01/10 09:36:23;;;;;;;;;42.33;34.67;;;;;6.09;72.17;101531.88;4999727;28;45467;-69
2022/01/10 09:38:48;;;;;;;;;48.00;36.67;;;;;6.42;71.54;101562.41;4981765;28;48564;-69
2022/01/10 09:41:17;;;;;;;;;39.00;32.33;;;;;6.09;71.15;101513.41;4981466;28;45551;-69
2022/01/10 09:43:50;;;;;;;;;41.00;33.67;;;;;6.57;71.27;101580.75;4999924;28;45494;-68
2022/01/10 09:46:16;;;;;;;;;32.33;30.67;;;;;6.62;70.72;101591.06;4999105;28;45334;-67
2022/01/10 09:48:42;;;;;;;;;38.67;32.00;;;;;6.69;70.81;101594.97;4981040;28;47681;-68
2022/01/10 09:51:07;;;;;;;;;35.67;32.00;;;;;6.76;70.77;101596.28;4999460;28;45505;-68
2022/01/10 09:53:33;;;;;;;;;30.33;26.33;;;;;6.76;70.74;101601.56;4999613;28;45243;-71
2022/01/10 09:55:58;;;;;;;;;35.67;30.00;;;;;6.74;70.01;101592.03;4999504;28;45366;-70
2022/01/10 09:58:24;;;;;;;;;29.67;28.33;;;;;6.83;70.75;101618.75;4999086;28;45927;-70
2022/01/10 10:00:55;;;;;;;;;35.67;34.00;;;;;6.87;70.49;101614.94;4997632;28;45412;-70
2022/01/10 10:03:22;;;;;;;;;30.67;28.67;;;;;6.76;69.90;101598.91;4981232;28;45437;-69
2022/01/10 10:05:52;;;;;;;;;35.67;23.67;;;;;6.79;71.36;101617.22;4981249;28;45326;-71
2022/01/10 10:08:20;;;;;;;;;32.33;28.67;;;;;6.64;70.37;101607.66;4999114;28;45549;-69
2022/01/10 10:10:46;;;;;;;;;41.67;33.00;;;;;6.68;71.34;101625.00;4981499;28;46186;-69
2022/01/10 10:13:15;;;;;;;;;32.00;30.00;;;;;6.74;71.02;101640.47;4981482;28;45527;-69
2022/01/10 10:15:43;;;;;;;;;30.00;26.67;;;;;6.77;70.62;101615.63;4981347;28;45281;-68
2022/01/10 10:18:10;;;;;;;;;34.67;31.67;;;;;6.89;70.58;101626.28;4980553;28;48026;-68
2022/01/10 10:20:36;;;;;;;;;31.33;27.00;;;;;6.66;70.64;101568.75;4998466;28;45397;-70
2022/01/10 10:23:03;;;;;;;;;31.33;30.67;;;;;6.93;70.52;101629.56;4980883;28;45385;-70
2022/01/10 10:25:29;;;;;;;;;36.00;31.67;;;;;6.91;71.00;101642.88;4998627;28;45281;-68
2022/01/10 10:27:57;;;;;;;;;42.67;36.33;;;;;6.78;70.81;101615.53;4998208;28;45618;-68
2022/01/10 10:30:27;;;;;;;;;39.33;33.67;;;;;6.66;70.61;101597.84;4974785;28;45786;-69
2022/01/10 10:33:17;;;;;;;;;38.67;31.33;;;;;6.79;70.90;101624.31;4978741;28;45397;-68
2022/01/10 10:35:45;;;;;;;;;34.67;32.33;;;;;6.87;70.93;101646.66;4960265;28;45529;-70
2022/01/10 10:38:11;;;;;;;;;42.00;32.00;;;;;6.84;71.01;101652.16;4998335;28;45394;-68
2022/01/10 10:40:44;;;;;;;;;42.00;33.67;;;;;6.70;71.24;101658.31;4994937;28;45357;-68
2022/01/10 10:43:10;;;;;;;;;41.67;35.67;;;;;6.81;71.64;101662.94;4977681;28;45488;-67
2022/01/10 10:45:36;;;;;;;;;36.00;33.33;;;;;6.86;71.13;101662.63;4978493;28;45240;-69
2022/01/10 10:48:07;;;;;;;;;37.67;33.00;;;;;6.80;71.56;101661.19;4978438;28;46021;-68
2022/01/10 10:50:41;;;;;;;;;43.00;36.00;;;;;6.79;71.75;101670.06;4976924;28;45259;-68
2022/01/10 10:53:10;;;;;;;;;40.33;36.00;;;;;6.47;71.43;101589.38;4978239;28;45247;-69
2022/01/10 10:55:38;;;;;;;;;41.67;36.33;;;;;7.04;71.08;101663.25;4978476;28;45628;-66
2022/01/10 10:58:05;;;;;;;;;40.00;33.33;;;;;7.13;71.37;101674.06;4989285;28;45731;-68
2022/01/10 11:00:31;;;;;;;;;42.33;37.33;;;;;7.13;70.89;101671.41;4944835;28;45268;-68
2022/01/10 11:02:57;;;;;;;;;40.67;33.33;;;;;7.19;70.66;101680.75;4995416;28;45455;-69
2022/01/10 11:05:23;;;;;;;;;44.00;37.33;;;;;7.21;70.55;101679.72;4983245;28;45413;-71
2022/01/10 11:07:49;;;;;;;;;36.00;34.33;;;;;6.74;70.81;101590.25;4971986;28;46280;-73
2022/01/10 11:10:15;;;;;;;;;42.67;35.00;;;;;7.38;70.41;101683.88;4978277;28;45466;-69
2022/01/10 11:12:44;;;;;;;;;38.67;32.00;;;;;7.36;69.65;101685.78;4978614;28;45302;-69
2022/01/10 11:15:10;;;;;;;;;47.67;34.33;;;;;7.30;69.92;101680.91;4997375;28;45636;-70
2022/01/10 11:17:40;;;;;;;;;42.00;34.67;;;;;7.32;69.87;101673.72;4996723;28;45731;-68
2022/01/10 11:20:18;;;;;;;;;35.33;34.33;;;;;7.32;70.05;101679.84;4997568;28;45433;-70
2022/01/10 11:22:54;;;;;;;;;38.33;33.67;;;;;7.41;70.32;101685.47;4986721;28;45465;-69
2022/01/10 11:25:21;;;;;;;;;35.00;30.67;;;;;7.47;70.69;101687.75;4989386;28;45485;-69
2022/01/10 11:27:49;;;;;;;;;39.67;33.67;;;;;7.14;70.25;101627.31;4993389;28;46243;-70